Time;durP1;ratioP1;P1;durP2;ratioP2;P2;SDS_P1;SDS_P2;PMS_P1;PMS_P2;Temp;Humidity;BMP_temperature;BMP_pressure;BME280_temperature;BME280_humidity;BME280_pressure;Samples;Min_cycle;Max_cycle;Signal;HPM_P1;HPM_P2
2021/01/02 00:02:43;;;;;;;50.95;21.77;;;1.70;99.90;;;;;;5052629;28;20182;-56
2021/01/02 00:05:18;;;;;;;46.03;20.63;;;1.80;99.90;;;;;;5052843;28;20646;-56
2021/01/02 00:08:11;;;;;;;55.55;23.60;;;1.80;99.90;;;;;;5052996;28;20201;-56
2021/01/02 00:11:08;;;;;;;59.05;24.33;;;1.80;99.90;;;;;;5052709;28;20163;-56
2021/01/02 00:13:47;;;;;;;61.78;25.70;;;1.80;99.90;;;;;;5051755;28;20662;-55
2021/01/02 00:16:31;;;;;;;55.17;22.48;;;1.80;99.90;;;;;;5051914;28;20174;-55
2021/01/02 00:19:16;;;;;;;55.63;22.20;;;1.80;99.90;;;;;;5052930;28;20182;-55
2021/01/02 00:21:52;;;;;;;66.63;24.77;;;1.90;99.90;;;;;;5052410;28;20171;-54
2021/01/02 00:24:41;;;;;;;57.38;24.00;;;1.90;99.90;;;;;;5051491;28;20201;-56
2021/01/02 00:27:19;;;;;;;57.72;24.30;;;1.80;99.90;;;;;;5052806;28;20206;-55
2021/01/02 00:30:02;;;;;;;58.00;25.05;;;1.80;99.90;;;;;;5052147;28;20155;-55
2021/01/02 00:32:50;;;;;;;57.15;24.13;;;1.80;99.90;;;;;;5052609;28;20178;-55
2021/01/02 00:35:20;;;;;;;53.92;23.05;;;1.80;99.90;;;;;;5052964;28;20163;-55
2021/01/02 00:38:03;;;;;;;53.75;23.77;;;1.80;99.90;;;;;;5052838;28;20623;-55
2021/01/02 00:40:29;;;;;;;54.15;22.17;;;1.90;99.90;;;;;;5051723;28;20635;-54
2021/01/02 00:42:56;;;;;;;44.60;20.60;;;1.90;99.90;;;;;;5052900;28;20175;-56
2021/01/02 00:45:23;;;;;;;43.95;19.60;;;1.90;99.90;;;;;;5051950;28;20189;-53
2021/01/02 00:47:50;;;;;;;45.00;19.63;;;1.90;99.90;;;;;;5044630;28;20678;-55
2021/01/02 00:50:17;;;;;;;40.97;19.63;;;1.90;99.90;;;;;;5052093;28;20194;-55
2021/01/02 00:52:46;;;;;;;43.53;20.40;;;1.90;99.90;;;;;;5051878;28;20539;-55
2021/01/02 00:55:24;;;;;;;42.80;19.42;;;1.90;99.90;;;;;;5052198;28;20179;-55
2021/01/02 00:58:08;;;;;;;42.35;20.27;;;1.90;99.90;;;;;;5051658;28;20177;-55
2021/01/02 01:00:35;;;;;;;44.58;20.33;;;1.90;99.90;;;;;;5051705;28;20170;-56
2021/01/02 01:03:02;;;;;;;44.05;19.17;;;1.90;99.90;;;;;;5052135;28;20658;-55
2021/01/02 01:05:33;;;;;;;45.30;19.25;;;1.90;99.90;;;;;;5051359;28;20190;-55
2021/01/02 01:07:59;;;;;;;41.78;19.13;;;1.90;99.90;;;;;;5051958;28;20210;-55
2021/01/02 01:10:29;;;;;;;39.88;19.45;;;1.90;99.90;;;;;;5051832;28;20258;-55
2021/01/02 01:13:06;;;;;;;37.25;18.48;;;2.00;99.90;;;;;;5051926;28;20627;-55
2021/01/02 01:15:32;;;;;;;45.67;19.42;;;2.00;99.90;;;;;;5051873;28;20529;-55
2021/01/02 01:18:17;;;;;;;41.10;19.02;;;1.90;99.90;;;;;;5051956;28;20182;-54
2021/01/02 01:20:53;;;;;;;45.47;19.17;;;1.90;99.90;;;;;;5051801;28;20186;-55
2021/01/02 01:23:31;;;;;;;44.58;20.15;;;1.90;99.90;;;;;;5051832;28;20197;-55
2021/01/02 01:26:03;;;;;;;42.75;19.25;;;1.90;99.90;;;;;;5052031;28;20682;-55
2021/01/02 01:28:31;;;;;;;39.30;18.88;;;1.90;99.90;;;;;;5044404;28;20675;-53
2021/01/02 01:30:57;;;;;;;42.78;18.75;;;1.90;99.90;;;;;;5052235;28;20171;-53
2021/01/02 01:33:28;;;;;;;37.53;19.25;;;1.90;99.90;;;;;;5033644;28;20185;-54
2021/01/02 01:35:58;;;;;;;41.83;18.60;;;1.90;99.90;;;;;;5052257;28;20256;-55
2021/01/02 01:38:26;;;;;;;43.33;18.77;;;1.90;99.90;;;;;;5051689;28;20163;-55
2021/01/02 01:41:11;;;;;;;39.42;19.50;;;1.90;99.90;;;;;;5050503;28;20182;-56
2021/01/02 01:44:09;;;;;;;39.17;18.98;;;2.00;99.90;;;;;;5051673;28;20174;-55
2021/01/02 01:46:48;;;;;;;40.25;19.38;;;1.90;99.90;;;;;;5050116;28;20186;-55
2021/01/02 01:49:18;;;;;;;37.70;18.55;;;1.90;99.90;;;;;;5052043;28;20179;-54
2021/01/02 01:51:48;;;;;;;40.08;19.13;;;1.90;99.90;;;;;;5051909;28;20183;-55
2021/01/02 01:54:26;;;;;;;41.47;18.48;;;2.00;99.90;;;;;;5037302;28;20623;-55
2021/01/02 01:56:52;;;;;;;41.13;20.10;;;2.00;99.90;;;;;;5052518;28;20186;-54
2021/01/02 01:59:19;;;;;;;42.13;18.40;;;2.00;99.90;;;;;;5050593;28;20647;-54
2021/01/02 02:01:52;;;;;;;39.90;18.90;;;2.00;99.90;;;;;;5051989;28;20526;-56
2021/01/02 02:04:56;;;;;;;39.28;19.58;;;1.90;99.90;;;;;;5050031;28;20205;-55
2021/01/02 02:07:22;;;;;;;41.20;18.40;;;2.00;99.90;;;;;;5051986;28;20207;-53
2021/01/02 02:10:01;;;;;;;43.03;18.52;;;2.00;99.90;;;;;;5035253;28;20194;-56
2021/01/02 02:12:31;;;;;;;36.95;17.58;;;2.00;99.90;;;;;;5053651;28;20542;-56
2021/01/02 02:14:57;;;;;;;41.75;19.83;;;2.00;99.90;;;;;;5055246;28;20171;-55
2021/01/02 02:17:28;;;;;;;42.88;19.20;;;2.00;99.90;;;;;;5054901;28;20624;-56
2021/01/02 02:20:04;;;;;;;42.40;18.60;;;2.00;99.90;;;;;;5054925;28;20186;-56
2021/01/02 02:22:30;;;;;;;36.97;19.45;;;2.00;99.90;;;;;;5053878;28;20197;-54
2021/01/02 02:24:56;;;;;;;38.92;18.75;;;2.00;99.90;;;;;;5037418;28;20242;-55
2021/01/02 02:27:26;;;;;;;47.15;18.15;;;2.00;99.90;;;;;;5055011;28;20221;-54
2021/01/02 02:30:17;;;;;;;39.58;19.83;;;2.00;99.90;;;;;;5055293;28;20175;-55
2021/01/02 02:32:47;;;;;;;39.10;18.35;;;2.00;99.90;;;;;;5053672;28;20190;-53
2021/01/02 02:35:17;;;;;;;41.72;18.73;;;2.00;99.90;;;;;;5053706;28;20179;-56
2021/01/02 02:38:02;;;;;;;41.65;18.42;;;2.00;99.90;;;;;;5054969;28;20187;-56
2021/01/02 02:40:28;;;;;;;44.22;19.30;;;2.00;99.90;;;;;;5054767;28;21014;-55
2021/01/02 02:43:01;;;;;;;37.72;19.38;;;2.00;99.90;;;;;;5054385;28;20179;-54
2021/01/02 02:45:28;;;;;;;41.53;19.25;;;2.00;99.90;;;;;;5054533;28;20170;-54
2021/01/02 02:47:55;;;;;;;40.55;17.33;;;2.00;99.90;;;;;;5054417;28;20194;-55
2021/01/02 02:50:27;;;;;;;43.75;19.25;;;2.00;99.90;;;;;;5036592;28;20170;-55
2021/01/02 02:53:12;;;;;;;34.63;17.55;;;2.00;99.90;;;;;;5054523;28;20506;-56
2021/01/02 02:55:39;;;;;;;34.00;17.10;;;2.00;99.90;;;;;;5036631;28;20193;-55
2021/01/02 02:58:05;;;;;;;42.90;19.13;;;2.00;99.90;;;;;;5053475;28;20187;-55
2021/01/02 03:00:32;;;;;;;32.88;16.63;;;2.00;99.90;;;;;;5053981;28;20202;-55
2021/01/02 03:02:58;;;;;;;37.60;16.77;;;2.00;99.90;;;;;;5053099;28;20636;-55
2021/01/02 03:05:24;;;;;;;39.58;18.08;;;2.00;99.90;;;;;;5054270;28;20631;-56
2021/01/02 03:07:50;;;;;;;34.05;17.75;;;2.00;99.90;;;;;;5054387;28;20233;-55
2021/01/02 03:10:18;;;;;;;37.90;18.33;;;2.00;99.90;;;;;;5053832;28;20190;-55
2021/01/02 03:12:45;;;;;;;38.95;18.33;;;2.00;99.90;;;;;;5054188;28;20175;-53
2021/01/02 03:15:13;;;;;;;34.67;17.13;;;2.00;99.90;;;;;;5053884;28;20179;-54
2021/01/02 03:17:40;;;;;;;39.53;18.08;;;2.00;99.90;;;;;;5045934;28;20523;-56
2021/01/02 03:20:07;;;;;;;35.95;17.33;;;2.00;99.90;;;;;;5053034;28;20535;-55
2021/01/02 03:22:33;;;;;;;36.85;17.67;;;2.00;99.90;;;;;;5052614;28;20202;-56
2021/01/02 03:24:59;;;;;;;35.45;16.13;;;2.00;99.90;;;;;;5053721;28;20221;-54
2021/01/02 03:27:25;;;;;;;34.70;17.23;;;2.00;99.90;;;;;;5053620;28;20569;-56
2021/01/02 03:29:51;;;;;;;34.88;17.30;;;2.00;99.90;;;;;;5054225;28;20539;-56
2021/01/02 03:32:18;;;;;;;35.70;17.00;;;2.00;99.90;;;;;;5053977;28;20194;-57
2021/01/02 03:34:44;;;;;;;41.10;17.60;;;1.90;99.90;;;;;;5054168;28;20175;-56
2021/01/02 03:37:10;;;;;;;35.60;17.58;;;1.90;99.90;;;;;;5053660;28;20185;-57
2021/01/02 03:39:36;;;;;;;41.60;18.75;;;1.90;99.90;;;;;;5052795;28;20655;-56
2021/01/02 03:42:03;;;;;;;37.70;17.38;;;2.00;99.90;;;;;;5053670;28;20174;-56
2021/01/02 03:44:29;;;;;;;39.80;17.98;;;2.00;99.90;;;;;;5053224;28;20190;-53
2021/01/02 03:46:55;;;;;;;36.22;17.60;;;2.00;99.90;;;;;;5053316;28;20210;-56
2021/01/02 03:49:21;;;;;;;39.33;17.83;;;2.00;99.90;;;;;;5053601;28;20194;-55
2021/01/02 03:51:47;;;;;;;39.53;18.73;;;2.00;99.90;;;;;;5053860;28;20174;-56
2021/01/02 03:54:13;;;;;;;39.60;17.77;;;1.90;99.90;;;;;;5053752;28;20545;-56
2021/01/02 03:56:39;;;;;;;36.85;18.08;;;1.90;99.90;;;;;;5053135;28;20182;-53
2021/01/02 03:59:06;;;;;;;39.90;18.17;;;1.90;99.90;;;;;;5053471;28;20189;-56
2021/01/02 04:01:32;;;;;;;39.40;17.75;;;2.00;99.90;;;;;;5053229;28;20182;-54
2021/01/02 04:03:58;;;;;;;41.22;18.38;;;1.90;99.90;;;;;;5053059;28;20194;-55
2021/01/02 04:06:25;;;;;;;40.50;17.33;;;1.90;99.90;;;;;;5052969;28;20186;-56
2021/01/02 04:08:51;;;;;;;42.50;18.33;;;2.00;99.90;;;;;;5051889;28;20217;-56
2021/01/02 04:11:17;;;;;;;41.67;18.33;;;1.90;99.90;;;;;;5052513;28;20182;-56
2021/01/02 04:13:43;;;;;;;40.25;18.75;;;2.00;99.90;;;;;;5053095;28;20183;-55
2021/01/02 04:16:09;;;;;;;38.75;18.20;;;2.00;99.90;;;;;;5053349;28;20186;-56
2021/01/02 04:18:35;;;;;;;39.10;17.25;;;2.00;99.90;;;;;;5052912;28;20191;-55
2021/01/02 04:21:02;;;;;;;38.00;17.92;;;2.00;99.90;;;;;;5053405;28;20175;-56
2021/01/02 04:23:28;;;;;;;37.75;17.88;;;2.00;99.90;;;;;;5052472;28;20213;-55
2021/01/02 04:25:54;;;;;;;39.17;17.10;;;2.00;99.90;;;;;;5052639;28;20240;-54
2021/01/02 04:28:20;;;;;;;38.28;17.08;;;2.00;99.90;;;;;;5052291;28;20202;-56
2021/01/02 04:30:46;;;;;;;39.08;17.70;;;2.00;99.90;;;;;;5052968;28;20174;-56
2021/01/02 04:33:12;;;;;;;44.20;17.27;;;2.00;99.90;;;;;;5052572;28;20198;-56
2021/01/02 04:35:38;;;;;;;32.83;16.75;;;2.00;99.90;;;;;;5052600;28;20186;-55
2021/01/02 04:38:05;;;;;;;39.53;17.75;;;2.00;99.90;;;;;;5052245;28;20194;-56
2021/01/02 04:40:31;;;;;;;40.10;18.02;;;2.00;99.90;;;;;;5052140;28;20582;-54
2021/01/02 04:42:57;;;;;;;39.85;17.65;;;2.00;99.90;;;;;;5052336;28;20213;-55
2021/01/02 04:45:23;;;;;;;35.50;15.95;;;2.00;99.90;;;;;;5035120;28;20167;-55
2021/01/02 04:47:49;;;;;;;39.90;17.20;;;1.90;99.90;;;;;;5052395;28;20538;-55
2021/01/02 04:50:16;;;;;;;37.13;17.60;;;2.00;99.90;;;;;;5051104;28;20185;-54
2021/01/02 04:52:42;;;;;;;33.67;16.60;;;2.00;99.90;;;;;;5052713;28;20182;-55
2021/01/02 04:55:09;;;;;;;34.85;16.95;;;2.00;99.90;;;;;;5034953;28;20190;-55
2021/01/02 04:57:38;;;;;;;37.63;16.83;;;2.00;99.90;;;;;;5052822;28;20181;-55
2021/01/02 05:00:07;;;;;;;39.88;17.70;;;2.00;99.90;;;;;;5052184;28;20250;-54
2021/01/02 05:02:33;;;;;;;35.90;16.70;;;2.00;99.90;;;;;;5050523;28;20191;-55
2021/01/02 05:04:59;;;;;;;35.80;16.88;;;2.00;99.90;;;;;;5052452;28;20183;-56
2021/01/02 05:07:27;;;;;;;33.22;17.13;;;2.00;99.90;;;;;;5052406;28;20185;-55
2021/01/02 05:09:53;;;;;;;35.70;16.27;;;1.90;99.90;;;;;;5052450;28;20182;-53
2021/01/02 05:12:26;;;;;;;31.48;15.57;;;1.90;99.90;;;;;;5051979;28;20678;-56
2021/01/02 05:15:09;;;;;;;36.10;16.23;;;1.80;99.90;;;;;;5052255;28;20178;-55
2021/01/02 05:17:36;;;;;;;31.45;15.80;;;1.80;99.90;;;;;;5052221;28;20627;-55
2021/01/02 05:20:03;;;;;;;33.33;16.17;;;1.70;99.90;;;;;;5051926;28;20250;-54
2021/01/02 05:22:30;;;;;;;37.50;15.95;;;1.70;99.90;;;;;;5051854;28;20296;-55
2021/01/02 05:25:12;;;;;;;33.53;16.02;;;1.60;99.90;;;;;;5051813;28;20229;-55
2021/01/02 05:27:40;;;;;;;34.83;16.20;;;1.60;99.90;;;;;;5052312;28;20198;-56
2021/01/02 05:30:25;;;;;;;34.00;16.35;;;1.50;99.90;;;;;;5052189;28;20182;-56
2021/01/02 05:33:11;;;;;;;40.95;17.50;;;1.50;99.90;;;;;;5051590;28;20183;-54
2021/01/02 05:35:45;;;;;;;38.75;18.40;;;1.50;99.90;;;;;;5050970;28;20189;-53
2021/01/02 05:38:21;;;;;;;37.63;17.60;;;1.40;99.90;;;;;;5052341;28;20163;-55
2021/01/02 05:40:50;;;;;;;39.53;17.48;;;1.40;99.90;;;;;;5052074;28;20537;-54
2021/01/02 05:43:17;;;;;;;37.88;18.00;;;1.40;99.90;;;;;;5052141;28;20647;-53
2021/01/02 05:45:43;;;;;;;39.53;18.27;;;1.30;99.90;;;;;;5054832;28;20194;-56
2021/01/02 05:48:21;;;;;;;39.65;18.48;;;1.30;99.90;;;;;;5056443;28;20218;-55
2021/01/02 05:50:48;;;;;;;42.60;18.40;;;1.30;99.90;;;;;;5054862;28;20194;-55
2021/01/02 05:53:33;;;;;;;40.53;17.92;;;1.30;99.90;;;;;;5055422;28;20179;-53
2021/01/02 05:56:13;;;;;;;40.65;18.75;;;1.20;99.90;;;;;;5054766;28;20193;-54
2021/01/02 05:58:41;;;;;;;40.53;18.63;;;1.10;99.90;;;;;;5056405;28;20166;-55
2021/01/02 06:01:10;;;;;;;40.28;19.17;;;1.10;99.90;;;;;;5056200;28;20631;-54
2021/01/02 06:03:37;;;;;;;39.95;18.65;;;1.10;99.90;;;;;;5055644;28;20190;-56
2021/01/02 06:06:06;;;;;;;37.30;18.40;;;1.10;99.90;;;;;;5055058;28;20654;-56
2021/01/02 06:08:40;;;;;;;42.90;20.55;;;1.00;99.90;;;;;;5055150;28;20237;-52
2021/01/02 06:11:17;;;;;;;42.83;19.20;;;1.00;99.90;;;;;;5055570;28;20182;-54
2021/01/02 06:13:45;;;;;;;44.15;19.42;;;1.00;99.90;;;;;;5056029;28;20158;-55
2021/01/02 06:16:11;;;;;;;47.55;20.77;;;1.00;99.90;;;;;;5054284;28;20348;-55
2021/01/02 06:18:39;;;;;;;41.33;19.52;;;0.90;99.90;;;;;;5055834;28;20167;-56
2021/01/02 06:21:07;;;;;;;46.17;20.52;;;0.90;99.90;;;;;;5055476;28;20182;-55
2021/01/02 06:23:34;;;;;;;45.67;20.42;;;0.90;99.90;;;;;;5054892;28;20191;-54
2021/01/02 06:26:01;;;;;;;47.45;20.58;;;1.00;99.90;;;;;;5055339;28;20210;-54
2021/01/02 06:28:27;;;;;;;49.40;20.58;;;1.00;99.90;;;;;;5055078;28;20198;-56
2021/01/02 06:31:06;;;;;;;47.55;20.88;;;1.00;99.90;;;;;;5055634;28;20517;-55
2021/01/02 06:33:32;;;;;;;44.28;19.70;;;1.00;99.90;;;;;;5054683;28;20178;-52
2021/01/02 06:35:59;;;;;;;50.78;21.35;;;0.90;99.90;;;;;;5055276;28;20194;-55
2021/01/02 06:38:26;;;;;;;46.22;21.08;;;0.90;99.90;;;;;;5053616;28;20237;-56
2021/01/02 06:40:54;;;;;;;51.65;22.25;;;0.90;99.90;;;;;;5055139;28;20198;-53
2021/01/02 06:43:25;;;;;;;53.60;21.33;;;0.90;99.90;;;;;;5055033;28;20186;-53
2021/01/02 06:45:58;;;;;;;43.20;19.67;;;0.90;99.90;;;;;;5054426;28;20634;-55
2021/01/02 06:48:27;;;;;;;47.78;20.33;;;0.80;99.90;;;;;;5054834;28;20652;-52
2021/01/02 06:50:54;;;;;;;51.53;21.35;;;0.80;99.90;;;;;;5055142;28;20173;-55
2021/01/02 06:53:27;;;;;;;50.70;21.40;;;0.90;99.90;;;;;;5054476;28;20190;-55
2021/01/02 06:56:02;;;;;;;55.05;20.75;;;0.90;99.90;;;;;;5055066;28;20204;-54
2021/01/02 06:58:44;;;;;;;51.50;19.67;;;1.00;99.90;;;;;;5054687;28;20193;-56
2021/01/02 07:01:16;;;;;;;48.38;20.27;;;1.10;99.90;;;;;;5054232;28;20627;-56
2021/01/02 07:03:46;;;;;;;56.15;20.58;;;1.10;99.90;;;;;;5054609;28;20183;-53
2021/01/02 07:06:22;;;;;;;48.40;20.67;;;1.20;99.90;;;;;;5053616;28;20507;-56
2021/01/02 07:08:54;;;;;;;50.95;21.33;;;1.20;99.90;;;;;;5054825;28;20568;-56
2021/01/02 07:11:35;;;;;;;51.45;21.20;;;1.20;99.90;;;;;;5053478;28;20185;-56
2021/01/02 07:14:14;;;;;;;57.63;21.92;;;1.20;99.90;;;;;;5053629;28;20189;-55
2021/01/02 07:16:49;;;;;;;56.67;22.35;;;1.30;99.90;;;;;;5054410;28;20170;-56
2021/01/02 07:19:24;;;;;;;57.15;22.65;;;1.40;99.90;;;;;;5052747;28;20186;-56
2021/01/02 07:22:04;;;;;;;55.65;22.48;;;1.40;99.90;;;;;;5054481;28;20175;-54
2021/01/02 07:24:32;;;;;;;57.15;22.80;;;1.40;99.90;;;;;;5038024;28;20527;-55
2021/01/02 07:26:59;;;;;;;62.65;23.88;;;1.40;99.90;;;;;;5054533;28;20167;-56
2021/01/02 07:29:26;;;;;;;62.47;23.83;;;1.40;99.90;;;;;;5053941;28;20233;-56
2021/01/02 07:31:52;;;;;;;53.38;20.63;;;1.50;99.90;;;;;;5052819;28;20171;-55
2021/01/02 07:34:22;;;;;;;55.47;21.85;;;1.50;99.90;;;;;;5053659;28;20182;-56
2021/01/02 07:36:49;;;;;;;54.78;21.63;;;1.50;99.90;;;;;;5054431;28;20175;-56
2021/01/02 07:39:16;;;;;;;49.63;21.08;;;1.50;99.90;;;;;;5053690;28;20171;-55
2021/01/02 07:41:42;;;;;;;50.00;19.80;;;1.50;99.90;;;;;;5053654;28;20201;-56
2021/01/02 07:44:08;;;;;;;50.63;19.88;;;1.50;99.90;;;;;;5052296;28;20658;-54
2021/01/02 07:46:42;;;;;;;45.95;18.98;;;1.40;99.90;;;;;;5035329;28;20183;-54
2021/01/02 07:49:08;;;;;;;46.13;19.33;;;1.50;99.90;;;;;;5052646;28;20198;-54
2021/01/02 07:51:35;;;;;;;47.03;19.13;;;1.50;99.90;;;;;;5053747;28;20167;-56
2021/01/02 07:54:01;;;;;;;49.47;19.83;;;1.60;99.90;;;;;;5052953;28;20179;-56
2021/01/02 07:56:37;;;;;;;46.30;18.73;;;1.50;99.90;;;;;;5053270;28;20174;-52
2021/01/02 07:59:25;;;;;;;49.67;19.08;;;1.50;99.90;;;;;;5053430;28;20181;-55
2021/01/02 08:02:01;;;;;;;50.30;20.10;;;1.50;99.90;;;;;;5053608;28;20171;-55
2021/01/02 08:04:29;;;;;;;48.88;19.67;;;1.50;99.90;;;;;;5033517;28;20182;-53
2021/01/02 08:07:00;;;;;;;44.42;18.05;;;1.50;99.90;;;;;;5033670;28;20175;-56
2021/01/02 08:09:30;;;;;;;48.38;20.00;;;1.50;99.90;;;;;;5042623;28;20548;-55
2021/01/02 08:12:01;;;;;;;42.38;17.10;;;1.50;99.90;;;;;;5053442;28;20178;-55
2021/01/02 08:14:29;;;;;;;47.85;17.75;;;1.60;99.90;;;;;;5050159;28;20181;-56
2021/01/02 08:17:07;;;;;;;43.80;18.40;;;1.60;99.90;;;;;;5049936;28;20670;-55
2021/01/02 08:19:52;;;;;;;46.17;18.80;;;1.60;99.90;;;;;;5051778;28;20190;-56
2021/01/02 08:22:29;;;;;;;53.05;19.60;;;1.60;99.90;;;;;;5051195;28;20195;-55
2021/01/02 08:24:59;;;;;;;43.83;18.38;;;1.50;99.90;;;;;;5052322;28;20571;-55
2021/01/02 08:27:26;;;;;;;46.53;18.65;;;1.60;99.90;;;;;;5035720;28;20518;-56
2021/01/02 08:29:53;;;;;;;45.72;18.38;;;1.60;99.90;;;;;;5051675;28;20225;-53
2021/01/02 08:32:20;;;;;;;46.72;18.27;;;1.60;99.90;;;;;;5034241;28;20175;-55
2021/01/02 08:34:46;;;;;;;42.92;17.00;;;1.60;99.90;;;;;;5047164;28;20537;-55
2021/01/02 08:37:14;;;;;;;41.80;16.35;;;1.60;99.90;;;;;;5052377;28;20551;-56
2021/01/02 08:39:41;;;;;;;41.70;17.33;;;1.60;99.90;;;;;;5051895;28;20186;-55
2021/01/02 08:42:07;;;;;;;41.78;17.70;;;1.60;99.90;;;;;;5052318;28;20185;-56
2021/01/02 08:44:42;;;;;;;47.00;17.83;;;1.60;99.90;;;;;;5051638;28;20189;-54
2021/01/02 08:47:08;;;;;;;40.05;16.85;;;1.60;99.90;;;;;;5052797;28;20173;-53
2021/01/02 08:49:35;;;;;;;45.08;17.50;;;1.60;99.90;;;;;;5052384;28;20567;-53
2021/01/02 08:52:20;;;;;;;39.88;16.25;;;1.60;99.90;;;;;;5051822;28;20737;-53
2021/01/02 08:54:49;;;;;;;38.15;15.52;;;1.60;99.90;;;;;;5051144;28;20209;-56
2021/01/02 08:57:31;;;;;;;38.40;16.63;;;1.60;99.90;;;;;;5049761;28;20185;-55
2021/01/02 09:00:08;;;;;;;42.03;16.13;;;1.70;99.90;;;;;;5048022;28;20189;-56
2021/01/02 09:02:35;;;;;;;39.50;16.27;;;1.70;99.90;;;;;;5050597;28;20564;-56
2021/01/02 09:05:08;;;;;;;32.67;15.00;;;1.70;99.90;;;;;;5054793;28;20179;-56
2021/01/02 09:07:35;;;;;;;36.88;15.85;;;1.70;99.90;;;;;;5060014;28;20162;-55
2021/01/02 09:10:18;;;;;;;36.40;15.60;;;1.70;99.90;;;;;;5054697;28;20202;-54
2021/01/02 09:13:01;;;;;;;35.88;16.58;;;1.80;99.90;;;;;;5052077;28;20190;-55
2021/01/02 09:15:44;;;;;;;34.90;16.42;;;1.80;99.90;;;;;;5050487;28;20186;-53
2021/01/02 09:18:15;;;;;;;35.53;15.77;;;1.80;99.90;;;;;;5038178;28;20175;-54
2021/01/02 09:20:41;;;;;;;33.97;15.73;;;1.80;99.90;;;;;;5042055;28;20167;-55
2021/01/02 09:23:08;;;;;;;37.08;16.50;;;1.80;99.90;;;;;;5056389;28;20214;-55
2021/01/02 09:25:34;;;;;;;36.70;16.42;;;1.80;99.90;;;;;;5055964;28;20206;-54
2021/01/02 09:28:16;;;;;;;32.60;14.90;;;1.80;99.90;;;;;;5055727;28;20246;-55
2021/01/02 09:30:44;;;;;;;34.88;15.15;;;1.80;99.90;;;;;;5055391;28;20209;-57
2021/01/02 09:33:10;;;;;;;34.97;16.73;;;1.90;99.90;;;;;;5056310;28;20182;-55
2021/01/02 09:35:37;;;;;;;35.58;16.23;;;1.90;99.90;;;;;;5056539;28;20170;-56
2021/01/02 09:38:04;;;;;;;33.70;15.77;;;1.90;99.90;;;;;;5055929;28;20647;-56
2021/01/02 09:40:31;;;;;;;32.95;15.23;;;1.90;99.90;;;;;;5055808;28;20186;-56
2021/01/02 09:42:57;;;;;;;32.25;15.13;;;2.00;99.90;;;;;;5056308;28;20167;-54
2021/01/02 09:45:23;;;;;;;33.25;13.98;;;2.00;99.90;;;;;;5054825;28;20174;-54
2021/01/02 09:47:50;;;;;;;31.00;14.00;;;2.10;99.90;;;;;;5053383;28;20635;-55
2021/01/02 09:50:16;;;;;;;26.73;14.10;;;2.20;99.90;;;;;;5053812;28;20222;-53
2021/01/02 09:52:42;;;;;;;26.30;13.48;;;2.20;99.90;;;;;;5054588;28;20191;-55
2021/01/02 09:55:09;;;;;;;25.67;12.93;;;2.20;99.90;;;;;;5055261;28;20805;-55
2021/01/02 09:57:35;;;;;;;26.90;13.13;;;2.20;99.90;;;;;;5054345;28;20190;-55
2021/01/02 10:00:02;;;;;;;28.75;13.38;;;2.20;99.90;;;;;;5054648;28;20171;-52
2021/01/02 10:02:30;;;;;;;25.95;12.52;;;2.20;99.90;;;;;;5055052;28;20174;-55
2021/01/02 10:04:56;;;;;;;24.92;12.52;;;2.20;99.90;;;;;;5054947;28;20174;-52
2021/01/02 10:07:23;;;;;;;23.83;12.55;;;2.20;99.90;;;;;;5055746;28;20558;-55
2021/01/02 10:09:49;;;;;;;21.30;11.40;;;2.20;99.90;;;;;;5055643;28;20211;-56
2021/01/02 10:12:16;;;;;;;22.08;11.90;;;2.30;99.90;;;;;;5054279;28;20532;-55
2021/01/02 10:14:42;;;;;;;21.25;11.68;;;2.30;99.90;;;;;;5055760;28;20174;-55
2021/01/02 10:17:08;;;;;;;20.35;11.07;;;2.30;99.90;;;;;;5055916;28;20175;-54
2021/01/02 10:19:35;;;;;;;20.17;11.35;;;2.30;99.90;;;;;;5055463;28;20177;-55
2021/01/02 10:22:02;;;;;;;22.48;11.15;;;2.30;99.90;;;;;;5055715;28;20181;-53
2021/01/02 10:24:29;;;;;;;24.23;11.23;;;2.40;99.90;;;;;;5055199;28;20197;-54
2021/01/02 10:26:55;;;;;;;20.25;11.07;;;2.40;99.90;;;;;;5055941;28;20639;-54
2021/01/02 10:29:21;;;;;;;22.52;11.98;;;2.50;99.90;;;;;;5055310;28;20206;-54
2021/01/02 10:31:48;;;;;;;18.73;10.50;;;2.50;99.90;;;;;;5054994;28;20970;-55
2021/01/02 10:34:14;;;;;;;17.98;10.48;;;2.50;99.90;;;;;;5054964;28;20189;-56
2021/01/02 10:36:43;;;;;;;15.98;9.10;;;2.50;99.90;;;;;;5054377;28;20547;-55
2021/01/02 10:39:09;;;;;;;17.70;9.93;;;2.60;99.90;;;;;;5053643;28;20554;-55
2021/01/02 10:41:36;;;;;;;19.63;10.55;;;2.60;99.90;;;;;;5055397;28;20557;-55
2021/01/02 10:44:02;;;;;;;19.10;10.30;;;2.70;99.90;;;;;;5054059;28;20189;-56
2021/01/02 10:46:28;;;;;;;17.90;10.48;;;2.70;99.90;;;;;;5055151;28;20174;-55
2021/01/02 10:48:54;;;;;;;16.08;9.70;;;2.70;99.90;;;;;;5055298;28;20198;-52
2021/01/02 10:51:20;;;;;;;16.98;10.25;;;2.80;99.90;;;;;;5054905;28;20174;-53
2021/01/02 10:53:47;;;;;;;19.17;10.68;;;2.90;99.90;;;;;;5055096;28;20186;-55
2021/01/02 10:56:17;;;;;;;17.50;10.32;;;2.80;99.90;;;;;;5054807;28;20178;-54
2021/01/02 10:58:44;;;;;;;16.65;10.10;;;2.80;99.90;;;;;;5054867;28;20170;-55
2021/01/02 11:01:11;;;;;;;17.00;9.98;;;2.90;99.90;;;;;;5054958;28;20193;-55
2021/01/02 11:03:37;;;;;;;16.70;9.68;;;2.90;99.90;;;;;;5054682;28;20627;-56
2021/01/02 11:06:08;;;;;;;17.60;10.40;;;2.80;99.90;;;;;;5054827;28;20527;-55
2021/01/02 11:08:35;;;;;;;16.80;9.80;;;2.80;99.90;;;;;;5054488;28;20151;-56
2021/01/02 11:11:01;;;;;;;17.00;10.02;;;2.90;99.90;;;;;;5054327;28;20194;-55
2021/01/02 11:13:27;;;;;;;18.13;10.05;;;2.90;99.90;;;;;;5054437;28;20615;-55
2021/01/02 11:15:53;;;;;;;17.48;10.15;;;2.90;99.90;;;;;;5054749;28;20179;-54
2021/01/02 11:18:20;;;;;;;17.10;9.55;;;2.80;99.90;;;;;;5054214;28;20167;-56
2021/01/02 11:20:46;;;;;;;16.02;9.70;;;2.80;99.90;;;;;;5054749;28;20182;-53
2021/01/02 11:23:19;;;;;;;17.10;8.93;;;2.90;99.90;;;;;;5054218;28;20193;-53
2021/01/02 11:25:45;;;;;;;15.88;9.65;;;2.90;99.90;;;;;;5054728;28;20577;-54
2021/01/02 11:28:11;;;;;;;17.50;9.98;;;2.80;99.90;;;;;;5054180;28;20171;-55
2021/01/02 11:30:38;;;;;;;17.60;10.48;;;2.80;99.90;;;;;;5054563;28;20197;-55
2021/01/02 11:33:04;;;;;;;16.67;9.60;;;2.90;99.90;;;;;;5054181;28;20197;-54
2021/01/02 11:35:30;;;;;;;14.00;8.90;;;3.00;99.90;;;;;;5052940;28;20202;-52
2021/01/02 11:37:57;;;;;;;19.88;10.95;;;3.00;99.90;;;;;;5054262;28;20189;-55
2021/01/02 11:40:23;;;;;;;13.65;8.63;;;2.90;99.90;;;;;;5053874;28;20181;-57
2021/01/02 11:42:49;;;;;;;18.13;10.05;;;2.90;99.90;;;;;;5053137;28;20171;-54
2021/01/02 11:45:18;;;;;;;14.82;9.25;;;2.90;99.90;;;;;;5053655;28;20627;-55
2021/01/02 11:47:44;;;;;;;18.42;9.57;;;2.90;99.90;;;;;;5053535;28;20187;-55
2021/01/02 11:50:11;;;;;;;15.40;8.75;;;2.90;99.90;;;;;;5054049;28;20206;-54
2021/01/02 11:52:37;;;;;;;14.75;9.23;;;2.90;99.90;;;;;;5054057;28;20654;-55
2021/01/02 11:55:05;;;;;;;14.20;9.07;;;2.90;99.90;;;;;;5054184;28;20623;-54
2021/01/02 11:57:31;;;;;;;13.70;8.85;;;2.90;99.90;;;;;;5052288;28;20190;-54
2021/01/02 11:59:58;;;;;;;13.45;8.73;;;2.80;99.90;;;;;;5053726;28;20175;-53
2021/01/02 12:02:24;;;;;;;14.68;8.73;;;2.80;99.90;;;;;;5053228;28;20535;-55
2021/01/02 12:04:50;;;;;;;15.50;9.13;;;2.90;99.90;;;;;;5053814;28;20536;-54
2021/01/02 12:07:16;;;;;;;15.65;9.13;;;3.00;99.90;;;;;;5053251;28;20662;-54
2021/01/02 12:09:45;;;;;;;13.82;8.55;;;3.00;99.90;;;;;;5053533;28;20647;-55
2021/01/02 12:12:11;;;;;;;14.98;9.20;;;3.10;99.90;;;;;;5052065;28;20171;-57
2021/01/02 12:14:37;;;;;;;16.50;8.82;;;3.10;99.90;;;;;;5053297;28;20186;-54
2021/01/02 12:17:09;;;;;;;13.95;8.85;;;3.10;99.90;;;;;;5053040;28;20190;-55
2021/01/02 12:19:35;;;;;;;14.73;8.68;;;3.10;99.90;;;;;;5053241;28;20159;-55
2021/01/02 12:22:04;;;;;;;15.63;9.65;;;3.00;99.90;;;;;;5053285;28;20166;-53
2021/01/02 12:24:30;;;;;;;15.93;9.07;;;3.00;99.90;;;;;;5051356;28;20209;-56
2021/01/02 12:26:58;;;;;;;17.30;10.50;;;2.90;99.90;;;;;;5053460;28;20182;-56
2021/01/02 12:29:25;;;;;;;15.05;9.40;;;2.90;99.90;;;;;;5053055;28;20679;-55
2021/01/02 12:31:53;;;;;;;17.20;10.20;;;2.90;99.90;;;;;;5053281;28;20175;-53
2021/01/02 12:34:24;;;;;;;14.45;8.65;;;2.90;99.90;;;;;;5052995;28;20201;-55
2021/01/02 12:36:50;;;;;;;16.95;9.02;;;3.00;99.90;;;;;;5051353;28;20646;-55
2021/01/02 12:39:19;;;;;;;14.13;9.10;;;2.90;99.90;;;;;;5053006;28;20179;-55
2021/01/02 12:41:45;;;;;;;14.82;9.60;;;2.90;99.90;;;;;;5034788;28;20179;-55
2021/01/02 12:44:12;;;;;;;13.25;8.70;;;2.90;99.90;;;;;;5052844;28;20194;-55
2021/01/02 12:46:48;;;;;;;20.80;8.80;;;2.90;99.90;;;;;;5052987;28;20167;-51
2021/01/02 12:49:17;;;;;;;22.05;9.18;;;2.90;99.90;;;;;;5052297;28;20233;-54
2021/01/02 12:51:43;;;;;;;15.90;8.18;;;2.80;99.90;;;;;;5052944;28;20179;-52
2021/01/02 12:54:10;;;;;;;13.43;8.18;;;2.90;99.90;;;;;;5052922;28;20178;-54